sensor_id;sensor_type;location;lat;lon;timestamp;temperature;humidity
2867;DHT22;1441;48.886;8.728;2023-12-29T00:01:14;10.60;99.90
2867;DHT22;1441;48.886;8.728;2023-12-29T00:03:39;10.60;99.90
2867;DHT22;1441;48.886;8.728;2023-12-29T00:06:05;10.40;99.90
2867;DHT22;1441;48.886;8.728;2023-12-29T00:08:31;10.30;99.90
2867;DHT22;1441;48.886;8.728;2023-12-29T00:10:56;10.30;99.90
2867;DHT22;1441;48.886;8.728;2023-12-29T00:13:22;10.30;99.90
2867;DHT22;1441;48.886;8.728;2023-12-29T00:15:53;10.30;99.90
2867;DHT22;1441;48.886;8.728;2023-12-29T00:18:19;10.20;99.90
2867;DHT22;1441;48.886;8.728;2023-12-29T00:20:44;10.20;99.90
2867;DHT22;1441;48.886;8.728;2023-12-29T00:23:10;10.20;99.90
2867;DHT22;1441;48.886;8.728;2023-12-29T00:25:39;10.20;99.90
2867;DHT22;1441;48.886;8.728;2023-12-29T00:28:05;10.20;99.90
2867;DHT22;1441;48.886;8.728;2023-12-29T00:30:31;10.10;99.90
2867;DHT22;1441;48.886;8.728;2023-12-29T00:32:57;10.20;99.90
2867;DHT22;1441;48.886;8.728;2023-12-29T00:35:22;10.20;99.90
2867;DHT22;1441;48.886;8.728;2023-12-29T00:37:49;10.20;99.90
2867;DHT22;1441;48.886;8.728;2023-12-29T00:40:15;10.20;99.90
2867;DHT22;1441;48.886;8.728;2023-12-29T00:42:40;10.30;99.90
2867;DHT22;1441;48.886;8.728;2023-12-29T00:45:06;10.20;99.90
2867;DHT22;1441;48.886;8.728;2023-12-29T00:47:32;10.10;99.90
2867;DHT22;1441;48.886;8.728;2023-12-29T00:49:57;10.10;99.90
2867;DHT22;1441;48.886;8.728;2023-12-29T00:52:23;10.00;99.90
2867;DHT22;1441;48.886;8.728;2023-12-29T00:54:48;10.00;99.90
2867;DHT22;1441;48.886;8.728;2023-12-29T00:57:14;10.00;99.90
2867;DHT22;1441;48.886;8.728;2023-12-29T00:59:41;10.00;99.90
2867;DHT22;1441;48.886;8.728;2023-12-29T01:02:07;10.10;99.90
2867;DHT22;1441;48.886;8.728;2023-12-29T01:04:33;10.00;99.90
2867;DHT22;1441;48.886;8.728;2023-12-29T01:06:59;10.00;99.90
2867;DHT22;1441;48.886;8.728;2023-12-29T01:09:26;10.00;99.90
2867;DHT22;1441;48.886;8.728;2023-12-29T01:11:52;10.10;99.90
2867;DHT22;1441;48.886;8.728;2023-12-29T01:14:17;10.20;99.90
2867;DHT22;1441;48.886;8.728;2023-12-29T01:16:43;10.10;99.90
2867;DHT22;1441;48.886;8.728;2023-12-29T01:19:08;10.10;99.90
2867;DHT22;1441;48.886;8.728;2023-12-29T01:21:37;10.10;99.90
2867;DHT22;1441;48.886;8.728;2023-12-29T01:24:03;10.10;99.90
2867;DHT22;1441;48.886;8.728;2023-12-29T01:26:30;10.00;99.90
2867;DHT22;1441;48.886;8.728;2023-12-29T01:28:55;10.10;99.90
2867;DHT22;1441;48.886;8.728;2023-12-29T01:31:22;10.10;99.90
2867;DHT22;1441;48.886;8.728;2023-12-29T01:33:47;10.00;99.90
2867;DHT22;1441;48.886;8.728;2023-12-29T01:36:19;10.10;99.90
2867;DHT22;1441;48.886;8.728;2023-12-29T01:38:45;10.00;99.90
2867;DHT22;1441;48.886;8.728;2023-12-29T01:41:10;10.00;99.90
2867;DHT22;1441;48.886;8.728;2023-12-29T01:43:36;10.00;99.90
2867;DHT22;1441;48.886;8.728;2023-12-29T01:46:01;10.00;99.90
2867;DHT22;1441;48.886;8.728;2023-12-29T01:48:27;10.10;99.90
2867;DHT22;1441;48.886;8.728;2023-12-29T01:50:54;10.00;99.90
2867;DHT22;1441;48.886;8.728;2023-12-29T01:53:20;10.00;99.90
2867;DHT22;1441;48.886;8.728;2023-12-29T01:55:46;10.10;99.90
2867;DHT22;1441;48.886;8.728;2023-12-29T01:58:12;10.10;99.90
2867;DHT22;1441;48.886;8.728;2023-12-29T02:00:38;10.10;99.90
2867;DHT22;1441;48.886;8.728;2023-12-29T02:03:04;10.10;99.90
2867;DHT22;1441;48.886;8.728;2023-12-29T02:05:30;10.20;99.90
2867;DHT22;1441;48.886;8.728;2023-12-29T02:07:58;10.10;99.90
2867;DHT22;1441;48.886;8.728;2023-12-29T02:10:24;10.20;99.90
2867;DHT22;1441;48.886;8.728;2023-12-29T02:12:50;10.20;99.90
2867;DHT22;1441;48.886;8.728;2023-12-29T02:15:16;10.10;99.90
2867;DHT22;1441;48.886;8.728;2023-12-29T02:17:59;10.10;99.90
2867;DHT22;1441;48.886;8.728;2023-12-29T02:20:25;10.20;99.90
2867;DHT22;1441;48.886;8.728;2023-12-29T02:22:51;10.20;99.90
2867;DHT22;1441;48.886;8.728;2023-12-29T02:25:17;10.30;99.90
2867;DHT22;1441;48.886;8.728;2023-12-29T02:27:50;10.20;99.90
2867;DHT22;1441;48.886;8.728;2023-12-29T02:30:37;10.20;99.90
2867;DHT22;1441;48.886;8.728;2023-12-29T02:33:10;10.30;99.90
2867;DHT22;1441;48.886;8.728;2023-12-29T02:35:39;10.30;99.90
2867;DHT22;1441;48.886;8.728;2023-12-29T02:38:05;10.30;99.90
2867;DHT22;1441;48.886;8.728;2023-12-29T02:40:30;10.30;99.90
2867;DHT22;1441;48.886;8.728;2023-12-29T02:42:56;10.30;99.90
2867;DHT22;1441;48.886;8.728;2023-12-29T02:45:21;10.30;99.90
2867;DHT22;1441;48.886;8.728;2023-12-29T02:47:47;10.30;99.90
2867;DHT22;1441;48.886;8.728;2023-12-29T02:50:13;10.40;99.90
2867;DHT22;1441;48.886;8.728;2023-12-29T02:52:39;10.30;99.90
2867;DHT22;1441;48.886;8.728;2023-12-29T02:55:04;10.30;99.90
2867;DHT22;1441;48.886;8.728;2023-12-29T02:57:30;10.30;99.90
2867;DHT22;1441;48.886;8.728;2023-12-29T02:59:56;10.30;99.90
2867;DHT22;1441;48.886;8.728;2023-12-29T03:02:22;10.30;99.90
2867;DHT22;1441;48.886;8.728;2023-12-29T03:04:48;10.30;99.90
2867;DHT22;1441;48.886;8.728;2023-12-29T03:07:13;10.20;99.90
2867;DHT22;1441;48.886;8.728;2023-12-29T03:09:39;10.30;99.90
2867;DHT22;1441;48.886;8.728;2023-12-29T03:12:05;10.30;99.90
2867;DHT22;1441;48.886;8.728;2023-12-29T03:14:31;10.30;99.90
2867;DHT22;1441;48.886;8.728;2023-12-29T03:16:56;10.30;99.90
2867;DHT22;1441;48.886;8.728;2023-12-29T03:19:22;10.40;99.90
2867;DHT22;1441;48.886;8.728;2023-12-29T03:21:48;10.50;99.90
2867;DHT22;1441;48.886;8.728;2023-12-29T03:24:14;10.40;99.90
2867;DHT22;1441;48.886;8.728;2023-12-29T03:26:41;10.30;99.90
2867;DHT22;1441;48.886;8.728;2023-12-29T03:29:06;10.40;99.90
2867;DHT22;1441;48.886;8.728;2023-12-29T03:31:32;10.40;99.90
2867;DHT22;1441;48.886;8.728;2023-12-29T03:33:57;10.30;99.90
2867;DHT22;1441;48.886;8.728;2023-12-29T03:36:24;10.40;99.90
2867;DHT22;1441;48.886;8.728;2023-12-29T03:38:49;10.30;99.90
2867;DHT22;1441;48.886;8.728;2023-12-29T03:41:15;10.20;99.90
2867;DHT22;1441;48.886;8.728;2023-12-29T03:43:40;10.10;99.90
2867;DHT22;1441;48.886;8.728;2023-12-29T03:46:19;10.20;99.90
2867;DHT22;1441;48.886;8.728;2023-12-29T03:48:45;10.10;99.90
2867;DHT22;1441;48.886;8.728;2023-12-29T03:51:10;10.10;99.90
2867;DHT22;1441;48.886;8.728;2023-12-29T03:53:36;10.10;99.90
2867;DHT22;1441;48.886;8.728;2023-12-29T03:56:08;10.00;99.90
2867;DHT22;1441;48.886;8.728;2023-12-29T03:58:35;10.00;99.90
2867;DHT22;1441;48.886;8.728;2023-12-29T04:01:01;10.00;99.90
2867;DHT22;1441;48.886;8.728;2023-12-29T04:03:27;10.10;99.90
2867;DHT22;1441;48.886;8.728;2023-12-29T04:05:53;9.90;99.90
2867;DHT22;1441;48.886;8.728;2023-12-29T04:08:18;9.90;99.90
2867;DHT22;1441;48.886;8.728;2023-12-29T04:10:44;9.90;99.90
2867;DHT22;1441;48.886;8.728;2023-12-29T04:13:09;9.80;99.90
2867;DHT22;1441;48.886;8.728;2023-12-29T04:15:35;9.80;99.90
2867;DHT22;1441;48.886;8.728;2023-12-29T04:18:00;9.70;99.90
2867;DHT22;1441;48.886;8.728;2023-12-29T04:20:26;9.80;99.90
2867;DHT22;1441;48.886;8.728;2023-12-29T04:22:52;9.80;99.90
2867;DHT22;1441;48.886;8.728;2023-12-29T04:25:17;9.80;99.90
2867;DHT22;1441;48.886;8.728;2023-12-29T04:27:43;9.80;99.90
2867;DHT22;1441;48.886;8.728;2023-12-29T04:30:09;9.70;99.90
2867;DHT22;1441;48.886;8.728;2023-12-29T04:32:34;9.70;99.90
2867;DHT22;1441;48.886;8.728;2023-12-29T04:35:00;9.70;99.90
2867;DHT22;1441;48.886;8.728;2023-12-29T04:37:25;9.80;99.90
2867;DHT22;1441;48.886;8.728;2023-12-29T04:39:51;9.60;99.90
2867;DHT22;1441;48.886;8.728;2023-12-29T04:42:16;9.60;99.90
2867;DHT22;1441;48.886;8.728;2023-12-29T04:44:43;9.70;99.90
2867;DHT22;1441;48.886;8.728;2023-12-29T04:47:09;9.60;99.90
2867;DHT22;1441;48.886;8.728;2023-12-29T04:49:35;9.70;99.90
2867;DHT22;1441;48.886;8.728;2023-12-29T04:52:00;9.80;99.90
2867;DHT22;1441;48.886;8.728;2023-12-29T04:54:26;9.80;99.90
2867;DHT22;1441;48.886;8.728;2023-12-29T04:56:51;9.70;99.90
2867;DHT22;1441;48.886;8.728;2023-12-29T04:59:17;9.70;99.90
2867;DHT22;1441;48.886;8.728;2023-12-29T05:01:43;9.60;99.90
2867;DHT22;1441;48.886;8.728;2023-12-29T05:04:09;9.70;99.90
2867;DHT22;1441;48.886;8.728;2023-12-29T05:06:35;9.80;99.90
2867;DHT22;1441;48.886;8.728;2023-12-29T05:09:00;9.70;99.90
2867;DHT22;1441;48.886;8.728;2023-12-29T05:11:26;9.60;99.90
2867;DHT22;1441;48.886;8.728;2023-12-29T05:13:51;9.60;99.90
2867;DHT22;1441;48.886;8.728;2023-12-29T05:16:17;9.60;99.90
2867;DHT22;1441;48.886;8.728;2023-12-29T05:18:42;9.60;99.90
2867;DHT22;1441;48.886;8.728;2023-12-29T05:21:18;9.50;99.90
2867;DHT22;1441;48.886;8.728;2023-12-29T05:23:44;9.50;99.90
2867;DHT22;1441;48.886;8.728;2023-12-29T05:26:11;9.50;99.90
2867;DHT22;1441;48.886;8.728;2023-12-29T05:28:36;9.50;99.90
2867;DHT22;1441;48.886;8.728;2023-12-29T05:31:02;9.50;99.90
2867;DHT22;1441;48.886;8.728;2023-12-29T05:33:31;9.50;99.90
2867;DHT22;1441;48.886;8.728;2023-12-29T05:35:57;9.50;99.90
2867;DHT22;1441;48.886;8.728;2023-12-29T05:38:23;9.50;99.90
2867;DHT22;1441;48.886;8.728;2023-12-29T05:40:48;9.50;99.90
2867;DHT22;1441;48.886;8.728;2023-12-29T05:43:18;9.40;99.90
2867;DHT22;1441;48.886;8.728;2023-12-29T05:45:44;9.40;99.90
2867;DHT22;1441;48.886;8.728;2023-12-29T05:48:10;9.40;99.90
2867;DHT22;1441;48.886;8.728;2023-12-29T05:50:35;9.40;99.90
2867;DHT22;1441;48.886;8.728;2023-12-29T05:53:01;9.40;99.90
2867;DHT22;1441;48.886;8.728;2023-12-29T05:55:26;9.40;99.90
2867;DHT22;1441;48.886;8.728;2023-12-29T05:57:52;9.40;99.90
2867;DHT22;1441;48.886;8.728;2023-12-29T06:00:18;9.50;99.90
2867;DHT22;1441;48.886;8.728;2023-12-29T06:02:43;9.40;99.90
2867;DHT22;1441;48.886;8.728;2023-12-29T06:05:12;9.40;99.90
2867;DHT22;1441;48.886;8.728;2023-12-29T06:07:38;9.40;99.90
2867;DHT22;1441;48.886;8.728;2023-12-29T06:10:04;9.40;99.90
2867;DHT22;1441;48.886;8.728;2023-12-29T06:12:30;9.40;99.90
2867;DHT22;1441;48.886;8.728;2023-12-29T06:14:56;9.40;99.90
2867;DHT22;1441;48.886;8.728;2023-12-29T06:17:21;9.40;99.90
2867;DHT22;1441;48.886;8.728;2023-12-29T06:19:47;9.40;99.90
2867;DHT22;1441;48.886;8.728;2023-12-29T06:22:12;9.50;99.90
2867;DHT22;1441;48.886;8.728;2023-12-29T06:24:42;9.50;99.90
2867;DHT22;1441;48.886;8.728;2023-12-29T06:27:08;9.50;99.90
2867;DHT22;1441;48.886;8.728;2023-12-29T06:29:35;9.60;99.90
2867;DHT22;1441;48.886;8.728;2023-12-29T06:32:00;9.60;99.90
2867;DHT22;1441;48.886;8.728;2023-12-29T06:34:26;9.60;99.90
2867;DHT22;1441;48.886;8.728;2023-12-29T06:36:52;9.60;99.90
2867;DHT22;1441;48.886;8.728;2023-12-29T06:39:17;9.60;99.90
2867;DHT22;1441;48.886;8.728;2023-12-29T06:41:43;9.70;99.90
2867;DHT22;1441;48.886;8.728;2023-12-29T06:44:09;9.70;99.90
2867;DHT22;1441;48.886;8.728;2023-12-29T06:46:37;9.70;99.90
2867;DHT22;1441;48.886;8.728;2023-12-29T06:49:02;9.70;99.90
2867;DHT22;1441;48.886;8.728;2023-12-29T06:51:28;9.80;99.90
2867;DHT22;1441;48.886;8.728;2023-12-29T06:53:54;9.80;99.90
2867;DHT22;1441;48.886;8.728;2023-12-29T06:56:19;9.90;99.90
2867;DHT22;1441;48.886;8.728;2023-12-29T06:58:45;9.80;99.90
2867;DHT22;1441;48.886;8.728;2023-12-29T07:01:11;9.80;99.90
2867;DHT22;1441;48.886;8.728;2023-12-29T07:03:37;9.90;99.90
2867;DHT22;1441;48.886;8.728;2023-12-29T07:06:02;9.80;99.90
2867;DHT22;1441;48.886;8.728;2023-12-29T07:08:28;9.90;99.90
2867;DHT22;1441;48.886;8.728;2023-12-29T07:10:54;9.90;99.90
2867;DHT22;1441;48.886;8.728;2023-12-29T07:13:20;9.90;99.90
2867;DHT22;1441;48.886;8.728;2023-12-29T07:15:47;9.90;99.90
2867;DHT22;1441;48.886;8.728;2023-12-29T07:18:13;10.00;99.90
2867;DHT22;1441;48.886;8.728;2023-12-29T07:20:39;9.90;99.90
2867;DHT22;1441;48.886;8.728;2023-12-29T07:23:05;10.00;99.90
2867;DHT22;1441;48.886;8.728;2023-12-29T07:25:30;9.90;99.90
2867;DHT22;1441;48.886;8.728;2023-12-29T07:27:56;10.00;99.90
2867;DHT22;1441;48.886;8.728;2023-12-29T07:30:22;9.90;99.90
2867;DHT22;1441;48.886;8.728;2023-12-29T07:32:47;10.00;99.90
2867;DHT22;1441;48.886;8.728;2023-12-29T07:35:14;10.00;99.90
2867;DHT22;1441;48.886;8.728;2023-12-29T07:37:43;10.00;99.90
2867;DHT22;1441;48.886;8.728;2023-12-29T07:40:12;10.00;99.90
2867;DHT22;1441;48.886;8.728;2023-12-29T07:42:39;10.00;99.90
2867;DHT22;1441;48.886;8.728;2023-12-29T07:45:06;10.00;99.90
2867;DHT22;1441;48.886;8.728;2023-12-29T07:47:32;10.10;99.90
2867;DHT22;1441;48.886;8.728;2023-12-29T07:49:57;10.10;99.90
2867;DHT22;1441;48.886;8.728;2023-12-29T07:52:23;10.10;99.90
2867;DHT22;1441;48.886;8.728;2023-12-29T07:54:49;10.10;99.90
2867;DHT22;1441;48.886;8.728;2023-12-29T07:57:14;10.10;99.90
2867;DHT22;1441;48.886;8.728;2023-12-29T07:59:40;10.10;99.90
2867;DHT22;1441;48.886;8.728;2023-12-29T08:02:06;10.10;99.90
2867;DHT22;1441;48.886;8.728;2023-12-29T08:04:32;10.20;99.90
2867;DHT22;1441;48.886;8.728;2023-12-29T08:06:57;10.30;99.90
2867;DHT22;1441;48.886;8.728;2023-12-29T08:09:23;10.30;99.90
2867;DHT22;1441;48.886;8.728;2023-12-29T08:11:49;10.20;99.90
2867;DHT22;1441;48.886;8.728;2023-12-29T08:14:15;10.20;99.90
2867;DHT22;1441;48.886;8.728;2023-12-29T08:16:41;10.20;99.90
2867;DHT22;1441;48.886;8.728;2023-12-29T08:19:07;10.30;99.90
2867;DHT22;1441;48.886;8.728;2023-12-29T08:21:34;10.30;99.90
2867;DHT22;1441;48.886;8.728;2023-12-29T08:23:59;10.30;99.90
2867;DHT22;1441;48.886;8.728;2023-12-29T08:26:25;10.30;99.90
2867;DHT22;1441;48.886;8.728;2023-12-29T08:28:51;10.30;99.90
2867;DHT22;1441;48.886;8.728;2023-12-29T08:31:18;10.30;99.90
2867;DHT22;1441;48.886;8.728;2023-12-29T08:33:44;10.40;99.90
2867;DHT22;1441;48.886;8.728;2023-12-29T08:36:11;10.40;99.90
2867;DHT22;1441;48.886;8.728;2023-12-29T08:38:36;10.40;99.90
2867;DHT22;1441;48.886;8.728;2023-12-29T08:41:02;10.50;99.90
2867;DHT22;1441;48.886;8.728;2023-12-29T08:43:28;10.50;99.90
2867;DHT22;1441;48.886;8.728;2023-12-29T08:45:54;10.50;99.90
2867;DHT22;1441;48.886;8.728;2023-12-29T08:48:19;10.50;99.90
2867;DHT22;1441;48.886;8.728;2023-12-29T08:50:45;10.50;99.90
2867;DHT22;1441;48.886;8.728;2023-12-29T08:53:10;10.50;99.90
2867;DHT22;1441;48.886;8.728;2023-12-29T08:55:36;10.50;99.90
2867;DHT22;1441;48.886;8.728;2023-12-29T08:58:02;10.50;99.90
2867;DHT22;1441;48.886;8.728;2023-12-29T09:00:27;10.40;99.90
2867;DHT22;1441;48.886;8.728;2023-12-29T09:02:55;10.40;99.90
2867;DHT22;1441;48.886;8.728;2023-12-29T09:05:21;10.40;99.90
2867;DHT22;1441;48.886;8.728;2023-12-29T09:07:47;10.40;99.90
2867;DHT22;1441;48.886;8.728;2023-12-29T09:10:12;10.50;99.90
2867;DHT22;1441;48.886;8.728;2023-12-29T09:12:38;10.40;99.90
2867;DHT22;1441;48.886;8.728;2023-12-29T09:15:05;10.50;99.90
2867;DHT22;1441;48.886;8.728;2023-12-29T09:17:31;10.50;99.90
2867;DHT22;1441;48.886;8.728;2023-12-29T09:19:56;10.60;99.90
2867;DHT22;1441;48.886;8.728;2023-12-29T09:22:22;10.60;99.90
2867;DHT22;1441;48.886;8.728;2023-12-29T09:24:47;10.60;99.90
2867;DHT22;1441;48.886;8.728;2023-12-29T09:27:13;10.60;99.90
2867;DHT22;1441;48.886;8.728;2023-12-29T09:29:39;10.70;99.90
2867;DHT22;1441;48.886;8.728;2023-12-29T09:32:05;10.70;99.90
2867;DHT22;1441;48.886;8.728;2023-12-29T09:34:31;10.80;99.90
2867;DHT22;1441;48.886;8.728;2023-12-29T09:36:57;10.70;99.90
2867;DHT22;1441;48.886;8.728;2023-12-29T09:39:22;10.80;99.90
2867;DHT22;1441;48.886;8.728;2023-12-29T09:41:51;10.70;99.90
2867;DHT22;1441;48.886;8.728;2023-12-29T09:44:19;10.70;99.90
2867;DHT22;1441;48.886;8.728;2023-12-29T09:46:49;10.80;99.90
2867;DHT22;1441;48.886;8.728;2023-12-29T09:49:15;10.80;99.90
2867;DHT22;1441;48.886;8.728;2023-12-29T09:51:42;10.80;99.90
2867;DHT22;1441;48.886;8.728;2023-12-29T09:54:09;10.80;99.90
2867;DHT22;1441;48.886;8.728;2023-12-29T09:56:37;10.70;99.90
2867;DHT22;1441;48.886;8.728;2023-12-29T09:59:03;10.70;99.90
2867;DHT22;1441;48.886;8.728;2023-12-29T10:01:29;10.60;99.90
2867;DHT22;1441;48.886;8.728;2023-12-29T10:03:56;10.70;99.90
2867;DHT22;1441;48.886;8.728;2023-12-29T10:06:24;10.60;99.90
2867;DHT22;1441;48.886;8.728;2023-12-29T10:08:50;10.70;99.90
2867;DHT22;1441;48.886;8.728;2023-12-29T10:11:19;10.70;99.90
2867;DHT22;1441;48.886;8.728;2023-12-29T10:13:50;10.80;99.80
2867;DHT22;1441;48.886;8.728;2023-12-29T10:16:28;10.80;99.80
2867;DHT22;1441;48.886;8.728;2023-12-29T10:19:06;10.70;99.90
2867;DHT22;1441;48.886;8.728;2023-12-29T10:24:19;10.90;99.10
2867;DHT22;1441;48.886;8.728;2023-12-29T10:26:47;10.90;99.00
2867;DHT22;1441;48.886;8.728;2023-12-29T10:29:14;10.90;99.00
2867;DHT22;1441;48.886;8.728;2023-12-29T10:31:39;11.10;98.20
2867;DHT22;1441;48.886;8.728;2023-12-29T10:34:24;11.10;97.90
2867;DHT22;1441;48.886;8.728;2023-12-29T10:36:57;11.20;97.40
2867;DHT22;1441;48.886;8.728;2023-12-29T10:39:24;11.20;97.00
2867;DHT22;1441;48.886;8.728;2023-12-29T10:41:50;11.20;97.60
2867;DHT22;1441;48.886;8.728;2023-12-29T10:44:16;11.40;96.50
2867;DHT22;1441;48.886;8.728;2023-12-29T10:46:42;11.40;95.60
2867;DHT22;1441;48.886;8.728;2023-12-29T10:49:12;11.50;95.70
2867;DHT22;1441;48.886;8.728;2023-12-29T10:51:38;11.40;95.60
2867;DHT22;1441;48.886;8.728;2023-12-29T10:54:05;11.40;95.90
2867;DHT22;1441;48.886;8.728;2023-12-29T10:56:31;11.30;95.80
2867;DHT22;1441;48.886;8.728;2023-12-29T10:59:01;11.40;94.50
2867;DHT22;1441;48.886;8.728;2023-12-29T11:01:32;11.30;94.40
2867;DHT22;1441;48.886;8.728;2023-12-29T11:04:02;11.30;94.40
2867;DHT22;1441;48.886;8.728;2023-12-29T11:06:28;11.30;95.10
2867;DHT22;1441;48.886;8.728;2023-12-29T11:08:55;11.40;94.90
2867;DHT22;1441;48.886;8.728;2023-12-29T11:11:21;11.40;95.10
2867;DHT22;1441;48.886;8.728;2023-12-29T11:13:47;11.70;94.40
2867;DHT22;1441;48.886;8.728;2023-12-29T11:16:14;11.90;92.90
2867;DHT22;1441;48.886;8.728;2023-12-29T11:18:43;12.10;92.90
2867;DHT22;1441;48.886;8.728;2023-12-29T11:21:10;12.00;92.10
2867;DHT22;1441;48.886;8.728;2023-12-29T11:23:36;12.20;92.00
2867;DHT22;1441;48.886;8.728;2023-12-29T11:26:03;12.30;91.40
2867;DHT22;1441;48.886;8.728;2023-12-29T11:28:28;12.30;91.90
2867;DHT22;1441;48.886;8.728;2023-12-29T11:30:54;12.30;91.30
2867;DHT22;1441;48.886;8.728;2023-12-29T11:33:30;12.10;91.50
2867;DHT22;1441;48.886;8.728;2023-12-29T11:36:02;12.00;92.00
2867;DHT22;1441;48.886;8.728;2023-12-29T11:38:56;11.90;92.40
2867;DHT22;1441;48.886;8.728;2023-12-29T11:42:02;12.00;92.30
2867;DHT22;1441;48.886;8.728;2023-12-29T11:44:28;12.00;92.20
2867;DHT22;1441;48.886;8.728;2023-12-29T11:46:56;12.10;92.00
2867;DHT22;1441;48.886;8.728;2023-12-29T11:49:22;12.20;91.20
2867;DHT22;1441;48.886;8.728;2023-12-29T11:51:49;12.30;91.20
2867;DHT22;1441;48.886;8.728;2023-12-29T11:54:25;12.30;90.20
2867;DHT22;1441;48.886;8.728;2023-12-29T11:56:52;12.40;90.10
2867;DHT22;1441;48.886;8.728;2023-12-29T11:59:19;12.50;90.20
2867;DHT22;1441;48.886;8.728;2023-12-29T12:01:58;12.50;90.50
2867;DHT22;1441;48.886;8.728;2023-12-29T12:04:40;12.60;89.80
2867;DHT22;1441;48.886;8.728;2023-12-29T12:09:39;12.60;89.70
2867;DHT22;1441;48.886;8.728;2023-12-29T12:12:05;12.70;89.10
2867;DHT22;1441;48.886;8.728;2023-12-29T12:14:46;12.70;89.40
2867;DHT22;1441;48.886;8.728;2023-12-29T12:17:28;12.60;90.30
2867;DHT22;1441;48.886;8.728;2023-12-29T12:19:59;12.60;90.30
2867;DHT22;1441;48.886;8.728;2023-12-29T12:22:26;12.50;89.90
2867;DHT22;1441;48.886;8.728;2023-12-29T12:24:57;12.50;90.00
2867;DHT22;1441;48.886;8.728;2023-12-29T12:27:24;12.50;90.30
2867;DHT22;1441;48.886;8.728;2023-12-29T12:29:58;12.50;90.00
2867;DHT22;1441;48.886;8.728;2023-12-29T12:32:26;12.40;90.20
2867;DHT22;1441;48.886;8.728;2023-12-29T12:34:54;12.50;90.70
2867;DHT22;1441;48.886;8.728;2023-12-29T12:37:25;12.50;90.40
2867;DHT22;1441;48.886;8.728;2023-12-29T12:39:51;12.50;90.90
2867;DHT22;1441;48.886;8.728;2023-12-29T12:42:18;12.40;90.50
2867;DHT22;1441;48.886;8.728;2023-12-29T12:45:04;12.30;90.70
2867;DHT22;1441;48.886;8.728;2023-12-29T12:48:00;12.40;91.20
2867;DHT22;1441;48.886;8.728;2023-12-29T12:50:27;12.40;90.90
2867;DHT22;1441;48.886;8.728;2023-12-29T12:52:52;12.40;91.00
2867;DHT22;1441;48.886;8.728;2023-12-29T12:55:18;12.30;91.20
2867;DHT22;1441;48.886;8.728;2023-12-29T12:57:45;12.30;91.00
2867;DHT22;1441;48.886;8.728;2023-12-29T13:00:11;12.30;91.10
2867;DHT22;1441;48.886;8.728;2023-12-29T13:02:37;12.20;91.10
2867;DHT22;1441;48.886;8.728;2023-12-29T13:05:03;12.20;90.60
2867;DHT22;1441;48.886;8.728;2023-12-29T13:07:33;12.30;90.90
2867;DHT22;1441;48.886;8.728;2023-12-29T13:09:59;12.40;89.90
2867;DHT22;1441;48.886;8.728;2023-12-29T13:12:26;12.30;90.50
2867;DHT22;1441;48.886;8.728;2023-12-29T13:14:52;12.20;89.90
2867;DHT22;1441;48.886;8.728;2023-12-29T13:17:17;12.10;89.60
2867;DHT22;1441;48.886;8.728;2023-12-29T13:19:46;12.10;89.90
2867;DHT22;1441;48.886;8.728;2023-12-29T13:22:12;12.00;90.30
2867;DHT22;1441;48.886;8.728;2023-12-29T13:24:46;12.00;89.90
2867;DHT22;1441;48.886;8.728;2023-12-29T13:27:13;12.00;90.60
2867;DHT22;1441;48.886;8.728;2023-12-29T13:29:40;11.90;90.60
2867;DHT22;1441;48.886;8.728;2023-12-29T13:37:33;11.70;91.30
2867;DHT22;1441;48.886;8.728;2023-12-29T13:40:10;11.70;91.70
2867;DHT22;1441;48.886;8.728;2023-12-29T13:42:39;11.70;92.00
2867;DHT22;1441;48.886;8.728;2023-12-29T13:45:08;11.60;91.90
2867;DHT22;1441;48.886;8.728;2023-12-29T13:47:35;11.60;92.40
2867;DHT22;1441;48.886;8.728;2023-12-29T13:50:02;11.60;92.70
2867;DHT22;1441;48.886;8.728;2023-12-29T13:52:28;11.60;92.70
2867;DHT22;1441;48.886;8.728;2023-12-29T13:54:54;11.60;92.90
2867;DHT22;1441;48.886;8.728;2023-12-29T13:57:30;11.60;92.90
2867;DHT22;1441;48.886;8.728;2023-12-29T13:59:56;11.60;93.00
2867;DHT22;1441;48.886;8.728;2023-12-29T14:02:31;11.60;92.60
2867;DHT22;1441;48.886;8.728;2023-12-29T14:05:18;11.50;92.70
2867;DHT22;1441;48.886;8.728;2023-12-29T14:08:08;11.50;93.00
2867;DHT22;1441;48.886;8.728;2023-12-29T14:10:36;11.40;93.20
2867;DHT22;1441;48.886;8.728;2023-12-29T14:13:07;11.40;93.40
2867;DHT22;1441;48.886;8.728;2023-12-29T14:15:40;11.40;93.80
2867;DHT22;1441;48.886;8.728;2023-12-29T14:20:41;11.40;93.00
2867;DHT22;1441;48.886;8.728;2023-12-29T14:23:06;11.40;93.10
2867;DHT22;1441;48.886;8.728;2023-12-29T14:25:36;11.40;92.40
2867;DHT22;1441;48.886;8.728;2023-12-29T14:28:03;11.30;92.60
2867;DHT22;1441;48.886;8.728;2023-12-29T14:30:29;11.40;92.30
2867;DHT22;1441;48.886;8.728;2023-12-29T14:32:57;11.30;92.90
2867;DHT22;1441;48.886;8.728;2023-12-29T14:35:23;11.30;92.80
2867;DHT22;1441;48.886;8.728;2023-12-29T14:37:49;11.40;92.20
2867;DHT22;1441;48.886;8.728;2023-12-29T14:40:15;11.40;92.00
2867;DHT22;1441;48.886;8.728;2023-12-29T14:42:40;11.40;91.80
2867;DHT22;1441;48.886;8.728;2023-12-29T14:45:07;11.40;91.70
2867;DHT22;1441;48.886;8.728;2023-12-29T14:47:33;11.40;91.30
2867;DHT22;1441;48.886;8.728;2023-12-29T14:49:59;11.30;91.60
2867;DHT22;1441;48.886;8.728;2023-12-29T14:52:24;11.40;90.50
2867;DHT22;1441;48.886;8.728;2023-12-29T14:54:50;11.40;90.80
2867;DHT22;1441;48.886;8.728;2023-12-29T14:57:16;11.40;90.60
2867;DHT22;1441;48.886;8.728;2023-12-29T14:59:42;11.40;90.90
2867;DHT22;1441;48.886;8.728;2023-12-29T15:02:07;11.30;90.70
2867;DHT22;1441;48.886;8.728;2023-12-29T15:04:34;11.40;90.80
2867;DHT22;1441;48.886;8.728;2023-12-29T15:07:00;11.40;90.60
2867;DHT22;1441;48.886;8.728;2023-12-29T15:09:25;11.30;90.30
2867;DHT22;1441;48.886;8.728;2023-12-29T15:11:51;11.30;90.10
2867;DHT22;1441;48.886;8.728;2023-12-29T15:14:18;11.30;90.00
2867;DHT22;1441;48.886;8.728;2023-12-29T15:16:45;11.20;90.30
2867;DHT22;1441;48.886;8.728;2023-12-29T15:19:11;11.30;89.50
2867;DHT22;1441;48.886;8.728;2023-12-29T15:21:38;11.20;90.30
2867;DHT22;1441;48.886;8.728;2023-12-29T15:24:04;11.20;89.50
2867;DHT22;1441;48.886;8.728;2023-12-29T15:26:30;11.20;89.90
2867;DHT22;1441;48.886;8.728;2023-12-29T15:28:55;11.20;90.10
2867;DHT22;1441;48.886;8.728;2023-12-29T15:31:22;11.10;89.20
2867;DHT22;1441;48.886;8.728;2023-12-29T15:33:52;11.20;89.00
2867;DHT22;1441;48.886;8.728;2023-12-29T15:36:21;11.20;89.30
2867;DHT22;1441;48.886;8.728;2023-12-29T15:38:48;11.10;90.00
2867;DHT22;1441;48.886;8.728;2023-12-29T15:41:14;11.00;89.80
2867;DHT22;1441;48.886;8.728;2023-12-29T15:43:39;11.00;89.30
2867;DHT22;1441;48.886;8.728;2023-12-29T15:46:15;11.00;89.20
2867;DHT22;1441;48.886;8.728;2023-12-29T15:48:42;11.10;88.30
2867;DHT22;1441;48.886;8.728;2023-12-29T15:51:07;11.10;89.20
2867;DHT22;1441;48.886;8.728;2023-12-29T15:53:34;11.00;89.10
2867;DHT22;1441;48.886;8.728;2023-12-29T15:56:00;11.00;88.70
2867;DHT22;1441;48.886;8.728;2023-12-29T15:58:28;10.90;88.90
2867;DHT22;1441;48.886;8.728;2023-12-29T16:00:54;10.90;88.90
2867;DHT22;1441;48.886;8.728;2023-12-29T16:03:19;10.90;88.80
2867;DHT22;1441;48.886;8.728;2023-12-29T16:05:45;11.00;88.30
2867;DHT22;1441;48.886;8.728;2023-12-29T16:08:11;10.90;88.40
2867;DHT22;1441;48.886;8.728;2023-12-29T16:10:37;10.90;88.50
2867;DHT22;1441;48.886;8.728;2023-12-29T16:13:03;10.80;88.90
2867;DHT22;1441;48.886;8.728;2023-12-29T16:15:28;10.80;88.30
2867;DHT22;1441;48.886;8.728;2023-12-29T16:17:54;10.80;88.30